Time;durP1;ratioP1;P1;durP2;ratioP2;P2;SDS_P1;SDS_P2;PMS_P1;PMS_P2;Temp;Humidity;BMP_temperature;BMP_pressure;BME280_temperature;BME280_humidity;BME280_pressure;Samples;Min_cycle;Max_cycle;Signal;HPM_P1;HPM_P2
2023/10/27 00:00:22;;;;;;;11.37;8.23;;;11.60;99.90;;;;;;10310277;28;20287;-86
2023/10/27 00:05:24;;;;;;;12.23;6.90;;;11.60;99.90;;;;;;10328617;28;20238;-86
2023/10/27 00:10:28;;;;;;;8.13;6.00;;;11.60;99.90;;;;;;10309881;28;20315;-86
2023/10/27 00:15:30;;;;;;;12.87;6.13;;;11.70;99.90;;;;;;10328506;28;20688;-86
2023/10/27 00:20:33;;;;;;;7.63;5.37;;;11.70;99.90;;;;;;10327351;28;20685;-86
2023/10/27 00:25:36;;;;;;;9.77;6.43;;;11.70;99.90;;;;;;10309321;28;20298;-86
2023/10/27 00:30:38;;;;;;;7.27;6.00;;;11.80;99.90;;;;;;10309018;28;20287;-86
2023/10/27 00:35:41;;;;;;;7.53;5.63;;;11.70;99.90;;;;;;10327717;28;20690;-86
2023/10/27 00:40:44;;;;;;;7.00;5.10;;;11.70;99.90;;;;;;10308981;28;20209;-85
2023/10/27 00:45:49;;;;;;;10.50;5.80;;;11.70;99.90;;;;;;10326365;28;20245;-86
2023/10/27 00:50:52;;;;;;;11.60;6.83;;;11.70;99.90;;;;;;10308778;28;20260;-86
2023/10/27 00:55:55;;;;;;;7.47;6.63;;;11.70;99.90;;;;;;10326879;28;20317;-86
2023/10/27 01:01:03;;;;;;;6.93;5.70;;;11.60;99.90;;;;;;10326302;28;20294;-86
2023/10/27 01:06:06;;;;;;;7.23;6.17;;;11.60;99.90;;;;;;10309067;28;20236;-86
2023/10/27 01:11:08;;;;;;;8.70;5.80;;;11.50;99.90;;;;;;10326471;28;20653;-85
2023/10/27 01:16:11;;;;;;;8.60;6.37;;;11.60;99.90;;;;;;10324539;28;20255;-86
2023/10/27 01:21:14;;;;;;;9.73;6.00;;;11.60;99.90;;;;;;10308761;28;20282;-86
2023/10/27 01:26:16;;;;;;;10.03;6.00;;;11.60;99.90;;;;;;10325786;28;20279;-86
2023/10/27 01:31:19;;;;;;;9.57;7.30;;;11.50;99.90;;;;;;10307561;28;20678;-85
2023/10/27 01:36:23;;;;;;;9.27;5.33;;;11.40;99.90;;;;;;10311617;28;20245;-86
2023/10/27 01:41:26;;;;;;;13.43;6.83;;;11.40;99.90;;;;;;10325584;28;20630;-86
2023/10/27 01:46:28;;;;;;;9.60;6.43;;;11.40;99.90;;;;;;10307454;28;20298;-85
2023/10/27 01:51:31;;;;;;;10.50;5.67;;;11.30;99.90;;;;;;10312528;28;20263;-85
2023/10/27 01:56:34;;;;;;;7.73;5.57;;;11.30;99.90;;;;;;10313420;28;20241;-86
2023/10/27 02:01:37;;;;;;;7.77;5.80;;;11.30;99.90;;;;;;10333003;28;20282;-86
2023/10/27 02:06:39;;;;;;;9.23;5.33;;;11.30;99.90;;;;;;10322019;28;20295;-86
2023/10/27 02:11:42;;;;;;;8.03;4.43;;;11.30;99.90;;;;;;10313876;28;20256;-85
2023/10/27 02:16:45;;;;;;;6.03;4.53;;;11.30;99.90;;;;;;10335289;28;20263;-85
2023/10/27 02:21:47;;;;;;;5.83;4.40;;;11.20;99.90;;;;;;10330615;28;20260;-85
2023/10/27 02:26:50;;;;;;;6.23;4.33;;;11.30;99.90;;;;;;10347035;28;20256;-85
2023/10/27 02:31:53;;;;;;;8.23;4.43;;;11.20;99.90;;;;;;10363374;28;20283;-85
2023/10/27 02:36:55;;;;;;;8.33;4.60;;;11.20;99.90;;;;;;10331205;28;20236;-85
2023/10/27 02:41:58;;;;;;;5.27;4.03;;;11.00;99.90;;;;;;10330452;28;20623;-85
2023/10/27 02:47:00;;;;;;;6.00;4.37;;;11.00;99.90;;;;;;10334273;28;20225;-85
2023/10/27 02:52:03;;;;;;;6.27;4.30;;;11.00;99.90;;;;;;10337084;28;20306;-85
2023/10/27 02:57:06;;;;;;;8.43;4.23;;;10.90;99.90;;;;;;10311777;28;20240;-85
2023/10/27 03:02:08;;;;;;;4.03;3.57;;;10.90;99.90;;;;;;10271767;28;20233;-85
2023/10/27 03:07:11;;;;;;;3.73;3.20;;;10.90;99.90;;;;;;10272199;28;20291;-85
2023/10/27 03:12:16;;;;;;;5.07;4.53;;;10.90;99.90;;;;;;10351244;28;20245;-85
2023/10/27 03:17:19;;;;;;;5.83;4.53;;;11.10;99.90;;;;;;10329946;28;20603;-85
2023/10/27 03:22:22;;;;;;;7.90;4.90;;;11.00;99.90;;;;;;10329629;28;20232;-85
2023/10/27 03:27:25;;;;;;;5.00;4.17;;;11.00;99.90;;;;;;10329142;28;20316;-85
2023/10/27 03:32:28;;;;;;;6.90;5.53;;;11.00;99.90;;;;;;10310846;28;20704;-86
2023/10/27 03:37:31;;;;;;;7.07;4.70;;;11.00;99.90;;;;;;10328743;28;20276;-85
2023/10/27 03:42:34;;;;;;;6.20;4.70;;;10.90;99.90;;;;;;10310979;28;20220;-85
2023/10/27 03:47:36;;;;;;;6.37;4.40;;;10.90;99.90;;;;;;10325984;28;20700;-85
2023/10/27 03:52:39;;;;;;;7.93;5.37;;;10.90;99.90;;;;;;10328579;28;20263;-85
2023/10/27 03:57:42;;;;;;;6.97;5.90;;;10.90;99.90;;;;;;10327327;28;20228;-85
2023/10/27 04:02:46;;;;;;;9.10;5.00;;;10.60;99.90;;;;;;10311160;28;20251;-85
2023/10/27 04:07:48;;;;;;;8.40;4.70;;;10.40;99.90;;;;;;10310753;28;20224;-85
2023/10/27 04:12:51;;;;;;;5.80;5.10;;;10.30;99.90;;;;;;10325894;28;20399;-85
2023/10/27 04:17:53;;;;;;;7.40;4.70;;;10.30;99.90;;;;;;10336946;28;20232;-85
2023/10/27 04:22:56;;;;;;;6.23;4.37;;;10.30;99.90;;;;;;10321545;28;20236;-85
2023/10/27 04:27:59;;;;;;;9.03;4.87;;;10.10;99.90;;;;;;10327008;28;20808;-85
2023/10/27 04:33:04;;;;;;;13.87;4.10;;;10.10;99.90;;;;;;10324669;28;20322;-85
2023/10/27 04:38:07;;;;;;;4.60;3.37;;;10.10;99.90;;;;;;10326801;28;20264;-85
2023/10/27 04:43:09;;;;;;;5.47;4.20;;;10.10;99.90;;;;;;10325649;28;20236;-85
2023/10/27 04:48:12;;;;;;;5.07;4.03;;;10.10;99.90;;;;;;10326513;28;20236;-85
2023/10/27 04:53:14;;;;;;;5.30;4.07;;;10.00;99.90;;;;;;10325212;28;20260;-84
2023/10/27 04:58:17;;;;;;;4.97;4.40;;;10.00;99.90;;;;;;10325551;28;20272;-86
2023/10/27 05:03:20;;;;;;;5.37;3.30;;;10.10;99.90;;;;;;10367317;28;20599;-86
2023/10/27 05:08:22;;;;;;;4.47;3.77;;;10.20;99.90;;;;;;10339660;28;20236;-85
2023/10/27 05:13:25;;;;;;;5.93;4.00;;;10.50;99.90;;;;;;10324087;28;20260;-85
2023/10/27 05:18:27;;;;;;;5.03;4.13;;;10.60;99.90;;;;;;10324270;28;20287;-84
2023/10/27 05:23:30;;;;;;;5.27;3.63;;;10.50;99.90;;;;;;10307878;28;20687;-84
2023/10/27 05:28:33;;;;;;;6.13;4.30;;;10.30;99.90;;;;;;10307785;28;20267;-85
2023/10/27 05:33:35;;;;;;;7.63;4.20;;;10.10;99.90;;;;;;10333356;28;20697;-85
2023/10/27 05:38:38;;;;;;;6.97;3.80;;;10.20;99.90;;;;;;10315423;28;20707;-85
2023/10/27 05:43:41;;;;;;;4.90;3.80;;;10.20;99.90;;;;;;10315630;28;20279;-85
2023/10/27 05:48:43;;;;;;;6.77;4.03;;;10.20;99.90;;;;;;10341238;28;20252;-85
2023/10/27 05:53:47;;;;;;;4.97;3.87;;;10.40;99.90;;;;;;10351002;28;20252;-85
2023/10/27 05:58:50;;;;;;;4.50;3.80;;;10.60;99.90;;;;;;10332858;28;20284;-85
2023/10/27 06:03:57;;;;;;;4.83;3.67;;;10.40;99.90;;;;;;10333070;28;20274;-85
2023/10/27 06:09:00;;;;;;;4.77;3.83;;;10.40;99.90;;;;;;10332572;28;20283;-85
2023/10/27 06:14:03;;;;;;;3.77;2.67;;;10.40;99.90;;;;;;10327620;28;20333;-85
2023/10/27 06:19:05;;;;;;;5.27;4.10;;;10.80;99.90;;;;;;10328707;28;20268;-84
2023/10/27 06:24:10;;;;;;;5.73;4.37;;;11.00;99.90;;;;;;10335174;28;20232;-84
2023/10/27 06:29:12;;;;;;;7.30;5.00;;;10.80;99.90;;;;;;10331134;28;20261;-84
2023/10/27 06:34:15;;;;;;;5.00;3.60;;;10.70;99.90;;;;;;10313011;28;20260;-84
2023/10/27 06:39:17;;;;;;;8.20;6.40;;;10.70;99.90;;;;;;10328445;28;20287;-84
2023/10/27 06:44:20;;;;;;;4.73;3.90;;;10.90;99.90;;;;;;10329948;28;20255;-84
2023/10/27 06:49:22;;;;;;;8.67;6.43;;;10.80;99.90;;;;;;10327717;28;20240;-84
2023/10/27 06:54:25;;;;;;;9.43;7.17;;;10.30;99.90;;;;;;10330046;28;20252;-83
2023/10/27 06:59:30;;;;;;;7.70;5.27;;;10.40;99.90;;;;;;10309804;28;20616;-86
2023/10/27 07:04:33;;;;;;;8.77;5.27;;;10.80;99.90;;;;;;10330771;28;20229;-86
2023/10/27 07:09:36;;;;;;;7.10;5.00;;;10.80;99.90;;;;;;10311955;28;20233;-85
2023/10/27 07:14:40;;;;;;;5.97;4.60;;;10.90;99.90;;;;;;10331858;28;20272;-85
2023/10/27 07:19:43;;;;;;;11.50;6.27;;;11.00;99.90;;;;;;10329025;28;20256;-86
2023/10/27 07:24:49;;;;;;;6.73;5.57;;;11.10;99.90;;;;;;10327892;28;20817;-86
2023/10/27 07:29:51;;;;;;;7.10;5.33;;;11.20;99.90;;;;;;10312011;28;20240;-85
2023/10/27 07:34:54;;;;;;;8.90;5.97;;;11.30;99.90;;;;;;10294169;28;20738;-86
2023/10/27 07:39:57;;;;;;;9.33;6.00;;;11.30;99.90;;;;;;10328799;28;20284;-86
2023/10/27 07:45:00;;;;;;;6.80;5.17;;;11.40;99.90;;;;;;10310346;28;20291;-86
2023/10/27 07:50:05;;;;;;;6.10;4.77;;;11.60;99.90;;;;;;10326306;28;20244;-86
2023/10/27 07:55:08;;;;;;;8.57;6.23;;;11.80;99.90;;;;;;10327100;28;20240;-86
2023/10/27 08:00:14;;;;;;;7.37;6.07;;;11.80;99.90;;;;;;10307709;28;20293;-86
2023/10/27 08:05:17;;;;;;;6.60;5.50;;;11.60;99.90;;;;;;10328652;28;20229;-87
2023/10/27 08:10:20;;;;;;;5.10;4.60;;;11.60;99.90;;;;;;10324352;28;20241;-86
2023/10/27 08:15:23;;;;;;;7.03;5.73;;;11.70;99.90;;;;;;10326703;28;20688;-86
2023/10/27 08:20:26;;;;;;;6.87;5.30;;;11.70;99.90;;;;;;10326876;28;20641;-86
2023/10/27 08:25:29;;;;;;;9.33;6.13;;;11.80;99.90;;;;;;10309667;28;20264;-86
2023/10/27 08:30:31;;;;;;;7.07;4.60;;;11.80;99.90;;;;;;10323272;28;20245;-86
2023/10/27 08:35:34;;;;;;;8.20;5.80;;;11.80;99.90;;;;;;10308950;28;20232;-85
2023/10/27 08:40:37;;;;;;;7.27;5.33;;;11.80;99.90;;;;;;10327379;28;20713;-85
2023/10/27 08:45:42;;;;;;;6.20;4.53;;;12.00;99.90;;;;;;10293677;28;20232;-85
2023/10/27 08:50:45;;;;;;;7.67;5.70;;;11.80;99.90;;;;;;10307846;28;20305;-85
2023/10/27 08:55:49;;;;;;;10.13;6.63;;;11.90;99.90;;;;;;10292844;28;20630;-85
2023/10/27 09:00:51;;;;;;;7.73;5.23;;;12.10;99.90;;;;;;10306806;28;20252;-86
2023/10/27 09:05:54;;;;;;;4.30;3.67;;;12.30;99.90;;;;;;10325008;28;20292;-85
2023/10/27 09:10:56;;;;;;;3.80;3.50;;;12.20;99.90;;;;;;10324677;28;20256;-85
2023/10/27 09:15:59;;;;;;;4.93;4.13;;;12.10;99.90;;;;;;10325304;28;20233;-85
2023/10/27 09:21:02;;;;;;;4.10;3.50;;;12.10;99.90;;;;;;10331481;28;20239;-86
2023/10/27 09:26:04;;;;;;;4.73;4.30;;;12.10;99.90;;;;;;10358369;28;20257;-85
2023/10/27 09:31:07;;;;;;;5.03;4.53;;;12.00;99.90;;;;;;10325309;28;20311;-86
2023/10/27 09:36:12;;;;;;;8.50;5.40;;;11.80;99.90;;;;;;10325902;28;20260;-86
2023/10/27 09:41:16;;;;;;;5.07;4.27;;;11.90;99.90;;;;;;10306280;28;20233;-86
2023/10/27 09:46:19;;;;;;;5.80;5.30;;;11.90;99.90;;;;;;10324017;28;21010;-85
2023/10/27 09:51:23;;;;;;;7.00;5.13;;;11.90;99.90;;;;;;10322958;28;20256;-85
2023/10/27 09:56:26;;;;;;;6.20;5.23;;;11.90;99.90;;;;;;10313296;28;20228;-85
2023/10/27 10:01:28;;;;;;;8.17;6.00;;;12.10;99.90;;;;;;10365142;28;20240;-85
2023/10/27 10:06:32;;;;;;;9.40;6.07;;;12.10;99.90;;;;;;10330621;28;20237;-85
2023/10/27 10:11:48;;;;;;;6.57;5.37;;;12.20;99.90;;;;;;10327550;28;20248;-85
2023/10/27 10:16:50;;;;;;;7.93;6.30;;;12.20;99.90;;;;;;10328064;28;20688;-85
2023/10/27 10:21:53;;;;;;;7.20;5.83;;;12.20;99.90;;;;;;10330744;28;20237;-85
2023/10/27 10:27:06;;;;;;;6.37;4.93;;;12.10;99.90;;;;;;10328893;28;20276;-85
2023/10/27 10:32:32;;;;;;;12.33;9.70;;;12.20;99.90;;;;;;10330818;28;20264;-85
2023/10/27 10:37:36;;;;;;;7.57;6.10;;;12.20;99.90;;;;;;10302687;28;20259;-85
2023/10/27 10:43:16;;;;;;;4.90;4.03;;;12.20;99.90;;;;;;10329020;28;20245;-86
2023/10/27 10:48:19;;;;;;;8.20;6.20;;;12.40;99.90;;;;;;10312589;28;20237;-86
2023/10/27 10:53:26;;;;;;;7.90;6.70;;;12.40;99.90;;;;;;10328432;28;20261;-86
2023/10/27 10:58:31;;;;;;;9.67;6.50;;;12.40;99.90;;;;;;10329267;28;20233;-85
2023/10/27 11:03:34;;;;;;;9.10;6.83;;;12.40;99.90;;;;;;10329226;28;20237;-86
2023/10/27 11:08:40;;;;;;;10.37;7.50;;;12.40;99.90;;;;;;10329493;28;20363;-85
2023/10/27 11:13:47;;;;;;;8.20;6.17;;;12.40;99.90;;;;;;10311280;28;20307;-85
2023/10/27 11:18:57;;;;;;;9.73;6.90;;;12.30;99.90;;;;;;10329806;28;20228;-86
2023/10/27 11:24:07;;;;;;;12.47;7.07;;;12.40;99.90;;;;;;10327045;28;20233;-86
2023/10/27 11:29:09;;;;;;;10.03;7.13;;;12.40;99.90;;;;;;10284295;28;20732;-87
2023/10/27 11:34:20;;;;;;;8.47;6.23;;;12.40;99.90;;;;;;10282710;28;20253;-86
2023/10/27 11:39:23;;;;;;;11.37;7.47;;;12.40;99.90;;;;;;10282812;28;20233;-86
2023/10/27 11:44:27;;;;;;;14.70;9.53;;;12.40;99.90;;;;;;10279962;28;20611;-86
2023/10/27 11:49:31;;;;;;;13.90;9.13;;;12.40;99.90;;;;;;10265503;28;20222;-86
2023/10/27 11:54:34;;;;;;;14.03;9.70;;;12.40;99.90;;;;;;10243083;28;20249;-86
2023/10/27 11:59:36;;;;;;;17.93;12.90;;;12.40;99.90;;;;;;10274327;28;20780;-86
2023/10/27 12:04:39;;;;;;;17.33;12.10;;;11.70;99.90;;;;;;10284929;28;20739;-86
2023/10/27 12:09:42;;;;;;;17.07;10.53;;;11.20;99.90;;;;;;10288501;28;20241;-85
2023/10/27 12:14:44;;;;;;;16.33;11.70;;;11.00;99.90;;;;;;10288646;28;20713;-87
2023/10/27 12:19:47;;;;;;;18.73;12.73;;;10.80;99.90;;;;;;10287837;28;20553;-86
2023/10/27 12:24:50;;;;;;;19.67;13.60;;;10.60;99.90;;;;;;10277262;28;20300;-87
2023/10/27 12:29:52;;;;;;;21.80;14.00;;;10.40;99.90;;;;;;10230559;28;20230;-88
2023/10/27 12:34:56;;;;;;;18.53;13.40;;;10.40;99.90;;;;;;10228407;29;20272;-85
2023/10/27 12:39:59;;;;;;;23.27;14.53;;;10.30;99.90;;;;;;10226119;29;20229;-86
2023/10/27 12:45:02;;;;;;;22.30;15.00;;;10.20;99.90;;;;;;10230354;29;20236;-84
2023/10/27 12:50:05;;;;;;;27.00;15.13;;;10.10;99.90;;;;;;10246863;29;20241;-85
2023/10/27 12:55:11;;;;;;;27.40;16.77;;;10.00;99.90;;;;;;10224441;29;20307;-85
2023/10/27 13:00:17;;;;;;;16.33;8.60;;;10.00;99.90;;;;;;10229508;29;20764;-84
2023/10/27 13:05:19;;;;;;;25.30;15.93;;;10.00;99.90;;;;;;10221606;29;20628;-86
2023/10/27 13:10:23;;;;;;;23.27;13.80;;;9.90;99.90;;;;;;10230074;28;20253;-85
2023/10/27 13:15:35;;;;;;;24.80;15.53;;;9.80;99.90;;;;;;10230385;29;20254;-84
2023/10/27 13:20:39;;;;;;;27.33;16.13;;;9.70;99.90;;;;;;10246998;28;20221;-84
2023/10/27 13:25:41;;;;;;;30.23;18.50;;;9.70;99.90;;;;;;10241395;29;20257;-83
2023/10/27 13:30:48;;;;;;;26.13;16.03;;;9.60;99.90;;;;;;10243973;29;20679;-84
2023/10/27 13:36:02;;;;;;;27.23;16.83;;;9.60;99.90;;;;;;10246320;29;20254;-84
2023/10/27 13:41:19;;;;;;;31.07;18.23;;;9.50;99.90;;;;;;10245751;29;20225;-84
2023/10/27 13:46:22;;;;;;;32.07;19.57;;;9.40;99.90;;;;;;10249049;28;20282;-84
2023/10/27 13:51:27;;;;;;;30.07;18.07;;;9.40;99.90;;;;;;10253522;29;20239;-84
2023/10/27 13:56:30;;;;;;;33.27;19.53;;;9.30;99.90;;;;;;10253501;29;20274;-84
2023/10/27 14:01:32;;;;;;;29.77;18.97;;;9.30;99.90;;;;;;10246028;29;20290;-84
2023/10/27 14:06:38;;;;;;;31.83;20.30;;;9.30;99.90;;;;;;10243889;28;20656;-85
2023/10/27 14:11:47;;;;;;;31.93;20.27;;;9.20;99.90;;;;;;10240118;28;20252;-85
2023/10/27 14:16:53;;;;;;;33.63;20.87;;;9.20;99.90;;;;;;10233658;28;20228;-84
2023/10/27 14:21:56;;;;;;;30.87;18.20;;;9.20;99.90;;;;;;10252397;28;20309;-83
2023/10/27 14:26:59;;;;;;;31.80;19.03;;;9.20;99.90;;;;;;10249732;28;20269;-84
2023/10/27 14:32:02;;;;;;;28.63;18.47;;;9.20;99.90;;;;;;10248484;29;20301;-87
2023/10/27 14:37:05;;;;;;;30.70;18.90;;;9.20;99.90;;;;;;10233211;29;20254;-87
2023/10/27 14:42:08;;;;;;;23.70;10.57;;;9.10;99.90;;;;;;10250440;28;20298;-87
2023/10/27 14:47:11;;;;;;;21.53;14.27;;;9.30;99.90;;;;;;10247728;29;20247;-88
2023/10/27 14:52:14;;;;;;;23.87;15.93;;;9.90;99.90;;;;;;10249431;28;20259;-88
2023/10/27 14:57:18;;;;;;;18.97;12.47;;;9.80;99.90;;;;;;10197258;29;20245;-87
2023/10/27 15:02:25;;;;;;;17.43;12.60;;;9.60;99.90;;;;;;10224808;29;20256;-88
2023/10/27 15:07:27;;;;;;;18.07;12.67;;;9.90;99.90;;;;;;10231448;29;20249;-88
2023/10/27 15:12:30;;;;;;;18.23;10.60;;;10.10;99.90;;;;;;10250855;28;20296;-88
2023/10/27 15:17:33;;;;;;;17.90;13.43;;;10.30;99.90;;;;;;10248954;29;20262;-87
2023/10/27 15:22:41;;;;;;;24.03;15.53;;;10.60;99.90;;;;;;10232766;29;20210;-87
2023/10/27 15:27:44;;;;;;;18.60;11.50;;;10.50;99.90;;;;;;10258292;28;20721;-86
2023/10/27 15:32:46;;;;;;;18.60;12.67;;;10.70;99.90;;;;;;10270796;28;20268;-87
2023/10/27 15:37:49;;;;;;;18.70;12.70;;;10.60;99.90;;;;;;10288309;28;20229;-87
2023/10/27 15:42:52;;;;;;;16.40;10.00;;;10.50;99.90;;;;;;10287962;28;20303;-86
2023/10/27 15:47:55;;;;;;;16.13;11.13;;;10.70;99.90;;;;;;10288324;28;20696;-87
2023/10/27 15:52:58;;;;;;;19.90;13.63;;;10.70;99.90;;;;;;10287560;28;20248;-87
2023/10/27 15:58:00;;;;;;;17.33;11.67;;;10.60;99.90;;;;;;10269862;28;20772;-86
2023/10/27 16:03:03;;;;;;;22.90;14.03;;;10.50;99.90;;;;;;10287643;28;20233;-87
2023/10/27 16:08:06;;;;;;;15.50;11.13;;;10.70;99.90;;;;;;10286962;28;20296;-87
2023/10/27 16:13:08;;;;;;;21.83;13.83;;;10.70;99.90;;;;;;10275675;28;20646;-86
2023/10/27 16:18:12;;;;;;;23.97;18.07;;;10.60;99.90;;;;;;10247526;28;20704;-86
2023/10/27 16:23:15;;;;;;;22.43;15.00;;;10.10;99.90;;;;;;10246395;29;20261;-85
2023/10/27 16:28:18;;;;;;;20.27;14.73;;;10.10;99.90;;;;;;10246065;28;20801;-85
2023/10/27 16:33:20;;;;;;;22.00;15.03;;;10.30;99.90;;;;;;10246995;29;20257;-85
2023/10/27 16:38:23;;;;;;;22.07;15.50;;;10.50;99.90;;;;;;10228450;28;20297;-85
2023/10/27 16:43:26;;;;;;;20.90;12.93;;;10.30;99.90;;;;;;10228984;28;20655;-86
2023/10/27 16:48:28;;;;;;;23.33;16.27;;;10.50;99.90;;;;;;10240879;28;20285;-86
2023/10/27 16:53:31;;;;;;;24.90;17.93;;;10.60;99.90;;;;;;10258952;28;20289;-86
2023/10/27 16:58:33;;;;;;;23.77;17.93;;;10.40;99.90;;;;;;10238734;28;20237;-86
2023/10/27 17:03:36;;;;;;;27.37;20.30;;;9.60;99.90;;;;;;10236649;28;20274;-86
2023/10/27 17:08:39;;;;;;;26.37;19.83;;;9.10;99.90;;;;;;10255643;28;20280;-85
2023/10/27 17:13:41;;;;;;;28.77;20.50;;;9.00;99.90;;;;;;10217665;28;20316;-85
2023/10/27 17:18:45;;;;;;;28.53;20.00;;;8.80;99.90;;;;;;10227472;28;20241;-85
2023/10/27 17:23:53;;;;;;;25.80;19.80;;;8.80;99.90;;;;;;10267842;28;20306;-85
2023/10/27 17:28:55;;;;;;;27.47;19.27;;;8.50;99.90;;;;;;10251830;28;20749;-85
2023/10/27 17:33:58;;;;;;;33.30;18.67;;;8.50;99.90;;;;;;10224263;29;20258;-85
2023/10/27 17:39:08;;;;;;;31.00;20.33;;;8.60;99.90;;;;;;10252773;29;20226;-84
2023/10/27 17:44:14;;;;;;;31.43;19.07;;;8.40;99.90;;;;;;10247082;28;20249;-85
2023/10/27 17:49:17;;;;;;;27.10;18.00;;;8.40;99.90;;;;;;10243275;29;20242;-85
2023/10/27 17:54:20;;;;;;;33.03;22.03;;;8.40;99.90;;;;;;10234596;29;20254;-84
2023/10/27 17:59:23;;;;;;;33.90;21.80;;;8.30;99.90;;;;;;10235419;28;20678;-84
2023/10/27 18:04:25;;;;;;;36.87;24.93;;;8.20;99.90;;;;;;10252659;29;20238;-85
2023/10/27 18:09:28;;;;;;;35.03;23.60;;;8.10;99.90;;;;;;10249834;29;20242;-85
2023/10/27 18:14:31;;;;;;;30.23;21.70;;;8.50;99.90;;;;;;10251416;28;20320;-85
2023/10/27 18:19:34;;;;;;;28.93;19.93;;;8.20;99.90;;;;;;10231652;28;20258;-84
2023/10/27 18:24:37;;;;;;;28.67;19.60;;;8.30;99.90;;;;;;10244820;28;20266;-84
2023/10/27 18:29:40;;;;;;;34.13;20.50;;;8.10;99.90;;;;;;10247282;28;20246;-85
2023/10/27 18:34:42;;;;;;;31.20;19.47;;;8.10;99.90;;;;;;10249825;28;20252;-85
2023/10/27 18:39:45;;;;;;;29.10;20.33;;;8.10;99.90;;;;;;10246476;28;20313;-85
2023/10/27 18:44:51;;;;;;;29.40;19.93;;;8.20;99.90;;;;;;10211302;29;20320;-84
2023/10/27 18:49:53;;;;;;;30.27;20.57;;;8.10;99.90;;;;;;10234266;28;20242;-85
2023/10/27 18:54:56;;;;;;;34.77;23.40;;;8.20;99.90;;;;;;10240375;29;20277;-85
2023/10/27 18:59:59;;;;;;;34.77;22.20;;;8.00;99.90;;;;;;10248377;28;20269;-85
2023/10/27 19:05:03;;;;;;;34.80;21.67;;;8.30;99.90;;;;;;10234652;28;20652;-85
2023/10/27 19:10:10;;;;;;;33.73;22.23;;;8.00;99.90;;;;;;10225640;28;20632;-85
2023/10/27 19:15:13;;;;;;;40.07;25.83;;;7.90;99.90;;;;;;10201419;29;20312;-85
2023/10/27 19:20:16;;;;;;;38.20;24.13;;;8.10;99.90;;;;;;10248425;28;20626;-85
2023/10/27 19:25:18;;;;;;;21.80;12.30;;;8.20;99.90;;;;;;10241537;28;20724;-85
2023/10/27 19:30:21;;;;;;;31.13;17.53;;;;;;;;;;10233238;28;20262;-86
2023/10/27 19:35:24;;;;;;;36.87;21.10;;;9.00;99.90;;;;;;10209646;29;20262;-86
2023/10/27 19:40:26;;;;;;;36.60;20.20;;;9.10;99.90;;;;;;10231459;29;20231;-86
2023/10/27 19:45:34;;;;;;;25.53;17.43;;;9.20;99.90;;;;;;10247668;28;20247;-86
2023/10/27 19:50:37;;;;;;;24.17;15.47;;;9.30;99.90;;;;;;10247617;29;20618;-86
2023/10/27 19:55:41;;;;;;;20.10;14.53;;;9.20;99.90;;;;;;10247968;29;21025;-86
2023/10/27 20:00:44;;;;;;;26.60;17.73;;;9.50;99.90;;;;;;9559584;29;10000736;-86
2023/10/27 20:05:57;;;;;;;57.47;31.77;;;9.90;99.90;;;;;;10244334;29;20784;-87
2023/10/27 20:11:16;;;;;;;31.37;20.43;;;10.00;99.90;;;;;;10246073;29;20636;-86
2023/10/27 20:16:21;;;;;;;31.17;18.50;;;9.70;99.90;;;;;;10244960;28;21031;-87
2023/10/27 20:21:26;;;;;;;29.63;17.33;;;9.70;99.90;;;;;;10250516;28;20772;-86
2023/10/27 20:26:28;;;;;;;21.57;15.37;;;9.50;99.90;;;;;;10270926;28;20257;-87
2023/10/27 20:31:31;;;;;;;23.73;15.43;;;9.50;99.90;;;;;;10215959;28;20246;-87
2023/10/27 20:36:34;;;;;;;24.27;16.27;;;9.50;99.90;;;;;;10186698;29;20262;-87
2023/10/27 20:41:37;;;;;;;25.17;16.93;;;9.40;99.90;;;;;;10203870;29;20286;-87
2023/10/27 20:46:39;;;;;;;24.33;14.77;;;9.40;99.90;;;;;;10229759;28;20241;-86
2023/10/27 20:51:43;;;;;;;20.87;14.87;;;9.50;99.90;;;;;;10215371;29;20700;-86
2023/10/27 20:56:46;;;;;;;22.23;13.33;;;9.50;99.90;;;;;;10245002;29;20269;-85
2023/10/27 21:01:49;;;;;;;21.67;13.20;;;9.60;99.90;;;;;;10238990;28;20238;-85
2023/10/27 21:06:51;;;;;;;20.73;13.23;;;9.80;99.90;;;;;;10241559;29;20689;-85
2023/10/27 21:11:55;;;;;;;22.17;14.10;;;10.00;99.90;;;;;;10244369;28;20262;-83
2023/10/27 21:16:58;;;;;;;21.50;12.63;;;10.00;99.90;;;;;;10232514;29;20245;-86
2023/10/27 21:22:00;;;;;;;17.70;13.60;;;10.50;99.90;;;;;;10243355;28;20277;-87
2023/10/27 21:27:03;;;;;;;19.73;13.33;;;10.50;99.90;;;;;;10243792;28;20257;-86
2023/10/27 21:32:06;;;;;;;20.13;13.23;;;10.30;99.90;;;;;;10242897;29;20261;-86
2023/10/27 21:37:08;;;;;;;20.10;12.93;;;10.00;99.90;;;;;;10246726;28;20729;-86
2023/10/27 21:42:12;;;;;;;18.80;12.70;;;9.90;99.90;;;;;;10247688;28;20221;-86
2023/10/27 21:47:15;;;;;;;22.57;12.37;;;9.70;99.90;;;;;;10236565;29;20234;-86
2023/10/27 21:52:18;;;;;;;18.13;12.97;;;9.50;99.90;;;;;;10243796;29;20282;-86
2023/10/27 21:57:20;;;;;;;18.33;13.37;;;9.40;99.90;;;;;;10238472;28;20266;-86
2023/10/27 22:02:23;;;;;;;20.30;12.93;;;9.40;99.90;;;;;;10243964;29;20783;-86
2023/10/27 22:07:26;;;;;;;20.13;12.90;;;9.40;99.90;;;;;;10246717;28;20242;-86
2023/10/27 22:12:29;;;;;;;19.13;14.03;;;9.40;99.90;;;;;;10251786;28;20230;-86
2023/10/27 22:17:32;;;;;;;18.87;13.40;;;9.40;99.90;;;;;;10231543;29;20265;-86
2023/10/27 22:22:35;;;;;;;19.07;13.27;;;9.30;99.90;;;;;;10251709;29;20677;-86
2023/10/27 22:27:38;;;;;;;28.47;14.70;;;9.20;99.90;;;;;;10250534;28;20340;-87
2023/10/27 22:32:40;;;;;;;27.03;15.20;;;9.30;99.90;;;;;;10250330;29;20238;-86
2023/10/27 22:37:46;;;;;;;20.97;14.73;;;9.20;99.90;;;;;;10234012;29;20245;-86
2023/10/27 22:42:50;;;;;;;19.07;14.70;;;9.30;99.90;;;;;;10254042;28;20281;-86
2023/10/27 22:47:53;;;;;;;23.23;14.70;;;9.30;99.90;;;;;;10254256;28;20241;-86
2023/10/27 22:52:56;;;;;;;24.13;14.90;;;9.10;99.90;;;;;;10234915;29;20305;-86
2023/10/27 22:57:58;;;;;;;18.33;13.80;;;9.10;99.90;;;;;;10224293;28;20771;-86
2023/10/27 23:03:02;;;;;;;19.60;14.13;;;9.20;99.90;;;;;;10232442;29;20298;-87
2023/10/27 23:08:05;;;;;;;19.53;15.23;;;9.10;99.90;;;;;;10249019;29;20675;-87
2023/10/27 23:13:09;;;;;;;20.10;13.60;;;9.30;99.90;;;;;;10247549;29;20290;-86
2023/10/27 23:18:11;;;;;;;25.00;16.80;;;9.30;99.90;;;;;;10209628;29;20335;-86
2023/10/27 23:23:14;;;;;;;22.23;15.20;;;9.10;99.90;;;;;;10246236;29;20265;-86
2023/10/27 23:28:17;;;;;;;22.17;14.97;;;8.90;99.90;;;;;;10243424;29;20265;-86
2023/10/27 23:33:21;;;;;;;23.33;16.70;;;8.40;99.90;;;;;;10239082;29;20237;-87
2023/10/27 23:38:23;;;;;;;22.33;17.00;;;8.20;99.90;;;;;;10244703;29;20276;-87
2023/10/27 23:43:26;;;;;;;22.80;17.20;;;8.00;99.90;;;;;;10248257;29;20294;-85
2023/10/27 23:48:29;;;;;;;26.93;17.93;;;8.00;99.90;;;;;;10228782;29;20635;-86
2023/10/27 23:53:31;;;;;;;24.57;17.50;;;7.70;99.90;;;;;;10241312;29;20229;-86
2023/10/27 23:58:34;;;;;;;26.67;16.83;;;7.80;99.90;;;;;;10247604;28;20242;-86
